Time;durP1;ratioP1;P1;durP2;ratioP2;P2;SDS_P1;SDS_P2;PMS_P1;PMS_P2;Temp;Humidity;BMP_temperature;BMP_pressure;BME280_temperature;BME280_humidity;BME280_pressure;Samples;Min_cycle;Max_cycle;Signal;HPM_P1;HPM_P2
2021/07/25 00:01:07;;;;;;;10.30;9.25;;;;;;;21.24;70.31;99488.03;10262222;28;20070;-62
2021/07/25 00:06:15;;;;;;;10.52;9.45;;;;;;;21.15;70.70;99493.69;10263205;28;20275;-61
2021/07/25 00:11:18;;;;;;;9.30;8.27;;;;;;;21.16;70.64;99479.09;10267966;28;20142;-62
2021/07/25 00:16:20;;;;;;;12.43;9.88;;;;;;;21.26;71.33;99483.22;10270049;28;20178;-61
2021/07/25 00:21:22;;;;;;;10.07;8.98;;;;;;;21.36;70.11;99480.91;10260006;28;20060;-61
2021/07/25 00:26:33;;;;;;;10.00;9.10;;;;;;;21.37;70.06;99479.88;10261521;28;20718;-61
2021/07/25 00:31:34;;;;;;;11.18;10.07;;;;;;;21.44;70.09;99458.19;10256886;28;20540;-61
2021/07/25 00:36:36;;;;;;;11.02;9.93;;;;;;;21.49;69.94;99461.91;10246462;28;20086;-66
2021/07/25 00:41:37;;;;;;;11.27;10.15;;;;;;;21.47;69.75;99458.59;10217835;28;20122;-61
2021/07/25 00:46:40;;;;;;;11.27;10.00;;;;;;;21.49;69.46;99467.31;10237314;28;20076;-61
2021/07/25 00:51:43;;;;;;;10.93;9.85;;;;;;;21.49;70.12;99471.94;10246794;28;20487;-61
2021/07/25 00:56:45;;;;;;;11.05;10.02;;;;;;;21.34;71.19;99469.47;10237544;28;20120;-62
2021/07/25 01:01:48;;;;;;;10.73;9.73;;;;;;;21.08;71.71;99476.63;10268725;28;20133;-63
2021/07/25 01:06:56;;;;;;;12.50;11.27;;;;;;;21.16;72.77;99479.09;10276522;28;20492;-61
2021/07/25 01:12:03;;;;;;;11.82;10.45;;;;;;;21.24;71.35;99479.91;10268509;28;20059;-61
2021/07/25 01:17:31;;;;;;;10.43;9.43;;;;;;;21.39;70.38;99466.13;10265970;28;20127;-61
2021/07/25 01:22:38;;;;;;;11.80;9.90;;;;;;;21.46;69.61;99462.34;10229921;28;20083;-60
2021/07/25 01:28:01;;;;;;;11.27;10.25;;;;;;;21.43;69.38;99446.53;10265287;28;20061;-60
2021/07/25 01:33:08;;;;;;;9.88;8.88;;;;;;;21.33;69.22;99449.72;10271578;28;20065;-60
2021/07/25 01:38:10;;;;;;;11.40;10.18;;;;;;;21.29;69.21;99455.75;10246589;28;20102;-60
2021/07/25 01:43:14;;;;;;;10.93;9.82;;;;;;;21.20;69.50;99460.56;10271772;28;20066;-61
2021/07/25 01:48:15;;;;;;;9.88;8.95;;;;;;;21.15;69.81;99461.22;10264759;28;20051;-60
2021/07/25 01:53:16;;;;;;;10.63;9.00;;;;;;;21.09;70.15;99462.06;10234470;28;20122;-61
2021/07/25 01:58:18;;;;;;;11.23;10.00;;;;;;;21.05;70.37;99447.28;10234780;28;20066;-61
2021/07/25 02:03:24;;;;;;;10.70;9.60;;;;;;;21.03;70.61;99430.41;10279065;28;20070;-61
2021/07/25 02:08:25;;;;;;;10.90;9.90;;;;;;;20.96;70.74;99437.75;10290286;28;20068;-61
2021/07/25 02:13:27;;;;;;;16.55;11.27;;;;;;;20.80;71.44;99431.72;10269763;28;20846;-62
2021/07/25 02:18:28;;;;;;;12.52;11.32;;;;;;;20.82;71.72;99445.03;10272315;28;20546;-61
2021/07/25 02:23:31;;;;;;;12.52;10.55;;;;;;;20.81;72.21;99452.31;10275128;28;20081;-61
2021/07/25 02:28:33;;;;;;;11.88;10.73;;;;;;;20.86;71.68;99448.97;10277644;28;20415;-61
2021/07/25 02:33:34;;;;;;;13.65;12.35;;;;;;;20.78;71.88;99439.22;10274140;28;20129;-60
2021/07/25 02:38:36;;;;;;;13.50;12.13;;;;;;;20.77;72.48;99434.84;10260848;28;20042;-61
2021/07/25 02:43:37;;;;;;;12.52;11.30;;;;;;;20.78;72.55;99431.09;10237672;28;20054;-62
2021/07/25 02:48:38;;;;;;;13.23;11.93;;;;;;;20.82;72.32;99420.69;10233212;28;20055;-61
2021/07/25 02:53:40;;;;;;;14.50;13.00;;;;;;;20.78;74.16;99427.56;10220319;28;20160;-61
2021/07/25 02:58:41;;;;;;;12.75;11.48;;;;;;;20.70;75.19;99434.00;10219514;28;20763;-60
2021/07/25 03:03:43;;;;;;;13.23;11.85;;;;;;;20.61;75.45;99443.34;10229115;28;20694;-61
2021/07/25 03:08:44;;;;;;;14.20;12.65;;;;;;;20.57;76.28;99452.94;10266614;28;20744;-61
2021/07/25 03:13:46;;;;;;;12.70;11.48;;;;;;;20.48;76.29;99458.53;10276409;28;20073;-59
2021/07/25 03:18:47;;;;;;;12.88;11.55;;;;;;;20.47;76.49;99467.69;10262296;28;20500;-62
2021/07/25 03:23:49;;;;;;;11.85;10.68;;;;;;;20.39;76.57;99462.50;10232895;28;20079;-61
2021/07/25 03:28:50;;;;;;;13.45;12.05;;;;;;;20.31;77.00;99476.19;10231895;28;20584;-61
2021/07/25 03:33:52;;;;;;;13.82;12.50;;;;;;;20.27;77.10;99464.16;10222679;28;20074;-59
2021/07/25 03:38:53;;;;;;;13.00;11.73;;;;;;;20.36;76.87;99468.31;10232088;28;20508;-60
2021/07/25 03:43:55;;;;;;;12.95;11.65;;;;;;;20.42;76.75;99472.88;10230245;28;20118;-59
2021/07/25 03:48:57;;;;;;;13.00;11.70;;;;;;;20.43;77.14;99482.66;10230150;28;20129;-60
2021/07/25 03:53:58;;;;;;;12.98;11.30;;;;;;;20.43;76.82;99479.97;10218288;28;20066;-61
2021/07/25 03:58:59;;;;;;;12.13;10.65;;;;;;;20.45;76.66;99472.47;10219156;28;20083;-63
2021/07/25 04:04:01;;;;;;;17.02;13.88;;;;;;;20.39;77.78;99470.59;10220169;28;20059;-60
2021/07/25 04:09:02;;;;;;;14.15;12.68;;;;;;;20.47;77.26;99481.19;10217248;28;20747;-58
2021/07/25 04:14:04;;;;;;;15.80;14.10;;;;;;;20.16;79.30;99478.25;10222149;28;20059;-60
2021/07/25 04:19:05;;;;;;;15.93;14.32;;;;;;;20.13;79.65;99479.47;10223637;28;20043;-59
2021/07/25 04:24:07;;;;;;;14.30;12.77;;;;;;;20.21;79.16;99475.78;10214531;28;20078;-59
2021/07/25 04:29:09;;;;;;;13.32;12.00;;;;;;;20.30;79.00;99485.34;10274195;28;20115;-61
2021/07/25 04:34:11;;;;;;;14.30;12.85;;;;;;;20.18;78.94;99481.59;10271194;28;20074;-60
2021/07/25 04:39:12;;;;;;;13.18;11.13;;;;;;;20.26;79.35;99493.03;10268653;28;20108;-60
2021/07/25 04:44:21;;;;;;;15.60;12.93;;;;;;;20.26;78.65;99484.09;10269120;28;20050;-60
2021/07/25 04:49:32;;;;;;;15.50;13.93;;;;;;;19.98;80.48;99497.75;10281327;28;20066;-58
2021/07/25 04:54:35;;;;;;;15.05;13.35;;;;;;;19.90;81.36;99485.25;10254506;28;20095;-60
2021/07/25 04:59:46;;;;;;;16.00;14.43;;;;;;;19.94;81.24;99486.53;10228805;28;20153;-59
2021/07/25 05:04:49;;;;;;;19.95;17.60;;;;;;;20.09;80.31;99495.28;10280788;28;20848;-61
2021/07/25 05:09:50;;;;;;;18.70;16.80;;;;;;;20.15;80.26;99485.53;10278873;28;20577;-59
2021/07/25 05:14:52;;;;;;;21.65;19.35;;;;;;;20.06;79.78;99494.88;10267221;28;20055;-58
2021/07/25 05:20:14;;;;;;;20.38;18.08;;;;;;;19.89;81.67;99499.78;10257812;28;20055;-58
2021/07/25 05:25:20;;;;;;;22.00;19.60;;;;;;;19.78;81.71;99507.44;10229778;28;20680;-60
2021/07/25 05:30:23;;;;;;;18.92;16.98;;;;;;;19.70;81.77;99507.59;10204664;28;20114;-60
2021/07/25 05:35:25;;;;;;;;;;;;;;;19.70;82.37;99502.19;10190084;28;20146;-61
2021/07/25 05:40:26;;;;;;;20.75;18.02;;;;;;;19.96;80.48;99508.75;10187353;28;19967;-59
2021/07/25 05:45:28;;;;;;;26.40;20.10;;;;;;;19.96;80.71;99522.25;10180710;28;20199;-61
2021/07/25 05:50:29;;;;;;;23.55;20.55;;;;;;;20.01;80.92;99514.38;10184867;28;20142;-60
2021/07/25 05:55:33;;;;;;;21.88;19.50;;;;;;;20.22;80.27;99510.69;10187913;28;20138;-61
2021/07/25 06:00:34;;;;;;;20.48;17.70;;;;;;;20.24;79.46;99521.31;10192142;28;20531;-61
2021/07/25 06:05:36;;;;;;;23.10;19.85;;;;;;;20.17;80.07;99528.56;10230496;28;20405;-61
2021/07/25 06:10:42;;;;;;;23.63;19.63;;;;;;;20.16;79.73;99529.59;10235841;28;20135;-62
2021/07/25 06:15:47;;;;;;;23.30;19.95;;;;;;;20.18;80.46;99538.34;10225363;28;20197;-61
2021/07/25 06:20:49;;;;;;;21.95;18.23;;;;;;;20.23;79.25;99536.66;10232072;28;20219;-61
2021/07/25 06:25:50;;;;;;;15.73;14.13;;;;;;;20.25;78.58;99541.88;10190700;28;20134;-61
2021/07/25 06:30:52;;;;;;;15.40;13.75;;;;;;;20.15;78.67;99542.28;10183463;28;20055;-61
2021/07/25 06:35:53;;;;;;;16.13;14.43;;;;;;;20.00;79.95;99545.13;10187820;28;20705;-62
2021/07/25 06:40:55;;;;;;;13.23;11.85;;;;;;;20.29;78.63;99554.75;10191517;28;20130;-60
2021/07/25 06:45:57;;;;;;;14.85;12.85;;;;;;;20.36;77.82;99552.09;10187327;28;20075;-60
2021/07/25 06:51:01;;;;;;;13.82;12.43;;;;;;;20.43;77.45;99555.66;10228976;28;20500;-62
2021/07/25 06:56:04;;;;;;;13.75;12.10;;;;;;;20.65;76.98;99553.59;10227841;28;20038;-62
2021/07/25 07:01:07;;;;;;;14.38;12.70;;;;;;;20.67;76.53;99556.09;10232230;28;20199;-60
2021/07/25 07:06:09;;;;;;;18.60;15.90;;;;;;;20.71;76.20;99560.06;10231292;28;20061;-61
2021/07/25 07:11:10;;;;;;;19.23;17.02;;;;;;;20.42;77.50;99543.16;10226443;28;20704;-60
2021/07/25 07:16:12;;;;;;;17.38;15.38;;;;;;;20.51;77.85;99551.06;10225319;28;20055;-62
2021/07/25 07:21:13;;;;;;;15.35;13.75;;;;;;;20.48;77.65;99553.16;10225461;28;20554;-61
2021/07/25 07:26:14;;;;;;;14.40;11.65;;;;;;;20.58;77.18;99562.72;10227103;28;20049;-60
2021/07/25 07:31:16;;;;;;;12.60;11.02;;;;;;;20.57;76.51;99566.47;10228516;28;20075;-59
2021/07/25 07:36:19;;;;;;;11.18;9.55;;;;;;;20.63;76.17;99560.25;10231602;28;20137;-59
2021/07/25 07:41:20;;;;;;;10.88;9.77;;;;;;;20.61;76.17;99565.88;10222196;28;20178;-59
2021/07/25 07:46:22;;;;;;;9.68;8.57;;;;;;;20.69;76.11;99564.84;10230505;28;20150;-60
2021/07/25 07:51:23;;;;;;;8.85;8.05;;;;;;;20.84;75.30;99568.19;10231431;28;20603;-59
2021/07/25 07:56:26;;;;;;;8.50;7.70;;;;;;;21.11;73.34;99562.78;10225636;28;20070;-61
2021/07/25 08:01:27;;;;;;;8.07;7.27;;;;;;;21.17;73.26;99551.13;10228406;28;20050;-59
2021/07/25 08:06:29;;;;;;;7.75;7.00;;;;;;;21.43;72.35;99554.81;10226778;28;20043;-60
2021/07/25 08:11:31;;;;;;;8.48;7.60;;;;;;;21.61;71.06;99556.88;10231534;28;20574;-61
2021/07/25 08:16:32;;;;;;;8.05;7.30;;;;;;;21.83;70.19;99551.22;10234023;28;20046;-59
2021/07/25 08:21:34;;;;;;;9.02;8.13;;;;;;;22.21;68.94;99556.63;10224159;28;20272;-60
2021/07/25 08:26:36;;;;;;;8.95;8.07;;;;;;;22.42;68.23;99560.09;10229484;28;20075;-67
2021/07/25 08:31:37;;;;;;;8.68;7.78;;;;;;;22.33;67.78;99564.13;10227957;28;20169;-61
2021/07/25 08:36:39;;;;;;;7.55;6.85;;;;;;;22.49;67.17;99563.59;10223196;28;20083;-60
2021/07/25 08:41:47;;;;;;;8.85;7.40;;;;;;;22.99;65.75;99562.00;10226013;28;20172;-61
2021/07/25 08:46:54;;;;;;;7.53;6.82;;;;;;;23.52;64.83;99549.81;10223991;28;20202;-60
2021/07/25 08:51:59;;;;;;;7.05;6.05;;;;;;;23.93;63.20;99551.03;10225861;28;20058;-61
2021/07/25 08:57:02;;;;;;;7.05;5.88;;;;;;;23.92;62.95;99552.91;10227603;28;20061;-62
2021/07/25 09:02:15;;;;;;;7.63;6.07;;;;;;;24.41;61.38;99560.22;10238293;28;20718;-63
2021/07/25 09:07:19;;;;;;;5.90;5.40;;;;;;;24.69;60.18;99554.19;10221259;28;20547;-62
2021/07/25 09:12:22;;;;;;;7.13;5.90;;;;;;;24.98;59.06;99546.16;10223714;28;20055;-60
2021/07/25 09:17:24;;;;;;;7.90;5.87;;;;;;;25.14;58.65;99552.81;10225493;28;20101;-63
2021/07/25 09:22:26;;;;;;;6.32;5.72;;;;;;;25.08;57.87;99553.75;10220627;28;20129;-60
2021/07/25 09:27:27;;;;;;;5.25;4.75;;;;;;;25.49;56.90;99552.84;10228511;28;20142;-60
2021/07/25 09:32:34;;;;;;;6.03;5.03;;;;;;;26.06;54.94;99554.00;10224958;28;20165;-61
2021/07/25 09:37:38;;;;;;;6.03;5.43;;;;;;;26.37;53.63;99536.31;10216587;28;20054;-61
2021/07/25 09:42:40;;;;;;;4.75;4.35;;;;;;;26.43;53.84;99546.25;10231533;28;20106;-61
2021/07/25 09:47:43;;;;;;;7.07;5.53;;;;;;;26.46;52.98;99545.78;10231598;28;20120;-61
2021/07/25 09:52:44;;;;;;;5.15;4.75;;;;;;;26.53;51.23;99562.00;10228700;28;20114;-62
2021/07/25 09:57:53;;;;;;;5.07;4.53;;;;;;;26.79;49.13;99562.47;10191581;28;20145;-61
2021/07/25 10:02:55;;;;;;;4.88;4.35;;;;;;;27.28;49.93;99567.34;10234720;28;20227;-61
2021/07/25 10:07:56;;;;;;;4.85;4.45;;;;;;;26.96;49.24;99559.72;10229328;28;20059;-61
2021/07/25 10:12:58;;;;;;;5.30;4.50;;;;;;;27.01;48.72;99557.09;10206076;28;20218;-61
2021/07/25 10:18:00;;;;;;;4.70;4.30;;;;;;;26.91;49.08;99551.47;10190467;28;20151;-60
2021/07/25 10:23:02;;;;;;;5.55;4.15;;;;;;;27.25;48.14;99540.50;10198156;28;20069;-66
2021/07/25 10:28:05;;;;;;;5.47;4.97;;;;;;;27.37;48.51;99543.16;10225467;28;20062;-61
2021/07/25 10:33:07;;;;;;;4.43;3.13;;;;;;;27.98;45.81;99538.53;10227835;28;20141;-61
2021/07/25 10:38:09;;;;;;;5.53;3.87;;;;;;;28.27;44.67;99535.56;10224293;28;20058;-61
2021/07/25 10:43:13;;;;;;;6.40;3.92;;;;;;;28.67;45.30;99534.28;10224452;28;20140;-61
2021/07/25 10:48:15;;;;;;;4.65;3.28;;;;;;;29.31;43.26;99531.78;10222727;28;20162;-61
2021/07/25 10:53:22;;;;;;;4.40;3.83;;;;;;;29.73;40.84;99526.22;10221520;28;20446;-61
2021/07/25 10:58:24;;;;;;;3.72;3.35;;;;;;;30.33;41.45;99532.16;10227798;28;20046;-62
2021/07/25 11:03:25;;;;;;;4.63;3.10;;;;;;;30.09;41.70;99525.56;10232703;28;20467;-61
2021/07/25 11:08:43;;;;;;;4.13;3.47;;;;;;;29.79;41.33;99519.66;10230966;28;20055;-61
2021/07/25 11:13:45;;;;;;;3.30;3.00;;;;;;;30.46;39.97;99503.41;10233007;28;20141;-62
2021/07/25 11:18:46;;;;;;;2.92;2.70;;;;;;;31.00;38.26;99501.19;10223836;28;20051;-61
2021/07/25 11:23:48;;;;;;;2.53;2.33;;;;;;;30.91;38.66;99503.66;10218884;28;20182;-61
2021/07/25 11:28:49;;;;;;;3.42;2.28;;;;;;;30.98;36.91;99493.22;10256365;22;20083;-67
2021/07/25 11:33:51;;;;;;;4.00;2.42;;;;;;;30.81;37.39;99487.19;10259725;28;20228;-67
2021/07/25 11:39:00;;;;;;;3.53;2.70;;;;;;;30.72;37.60;99502.59;10264191;28;20050;-68
2021/07/25 11:44:09;;;;;;;4.70;2.72;;;;;;;30.65;35.96;99494.59;10259861;28;20573;-68
2021/07/25 11:49:12;;;;;;;2.70;2.47;;;;;;;30.25;38.53;99493.47;10251126;28;20853;-67
2021/07/25 11:54:17;;;;;;;2.70;2.10;;;;;;;30.26;38.10;99471.22;10247730;28;20089;-67
2021/07/25 11:59:19;;;;;;;2.53;2.33;;;;;;;30.56;35.84;99479.78;10260836;28;20120;-67
2021/07/25 12:04:41;;;;;;;4.15;2.30;;;;;;;30.23;36.32;99469.03;10260487;28;20042;-68
2021/07/25 12:09:53;;;;;;;3.83;2.17;;;;;;;30.43;36.55;99461.94;10257160;28;20177;-67
2021/07/25 12:15:00;;;;;;;2.60;1.80;;;;;;;30.77;36.39;99464.94;10258913;28;20794;-66
2021/07/25 12:20:20;;;;;;;3.70;2.67;;;;;;;30.80;35.32;99463.56;10257563;28;20124;-68
2021/07/25 12:25:22;;;;;;;2.67;1.83;;;;;;;30.59;34.72;99471.00;10254434;28;20065;-67
2021/07/25 12:30:23;;;;;;;2.80;2.13;;;;;;;30.41;34.92;99467.69;10258331;28;20074;-66
2021/07/25 12:35:25;;;;;;;2.17;1.83;;;;;;;30.44;36.20;99466.34;10260301;28;20166;-67
2021/07/25 12:40:47;;;;;;;2.95;2.22;;;;;;;30.58;35.00;99445.47;10258035;28;20063;-67
2021/07/25 12:45:52;;;;;;;2.20;1.58;;;;;;;30.73;35.13;99441.03;10259551;28;20109;-69
2021/07/25 12:56:14;;;;;;;2.53;2.10;;;;;;;30.45;34.98;99446.03;10251686;28;20286;-65
2021/07/25 13:06:27;;;;;;;;;;;;;;;30.59;34.15;99438.06;10260452;28;20043;-65
2021/07/25 13:11:33;;;;;;;2.60;2.40;;;;;;;30.65;33.77;99443.25;10270792;28;19990;-67
2021/07/25 13:16:35;;;;;;;3.67;2.30;;;;;;;30.40;33.57;99433.13;10278318;28;20508;-67
2021/07/25 13:21:37;;;;;;;2.50;2.00;;;;;;;30.27;34.11;99445.44;10268248;28;20058;-67
2021/07/25 13:26:39;;;;;;;1.98;1.85;;;;;;;30.17;34.07;99431.72;10267437;28;20062;-67
2021/07/25 13:31:45;;;;;;;2.58;1.70;;;;;;;30.21;32.84;99424.59;10265244;28;20045;-67
2021/07/25 13:36:46;;;;;;;3.45;2.10;;;;;;;30.52;33.17;99441.06;10273507;28;20058;-67
2021/07/25 13:41:48;;;;;;;3.88;2.60;;;;;;;30.58;33.96;99433.66;10266622;28;20125;-67
2021/07/25 13:51:53;;;;;;;2.60;2.20;;;;;;;30.25;32.89;99413.88;10268023;28;20121;-67
2021/07/25 13:56:55;;;;;;;1.97;1.80;;;;;;;30.32;32.88;99419.91;10267029;28;20528;-66
2021/07/25 14:01:57;;;;;;;2.13;1.92;;;;;;;30.38;33.71;99418.00;10265759;28;20070;-66
2021/07/25 14:06:58;;;;;;;;;;;;;;;30.63;32.60;99414.44;10268927;28;20244;-67
2021/07/25 14:11:59;;;;;;;3.20;2.47;;;;;;;30.70;32.90;99403.97;10269110;28;20432;-67
2021/07/25 14:17:03;;;;;;;2.50;1.92;;;;;;;30.82;33.16;99395.44;10266265;28;20059;-67
2021/07/25 14:22:05;;;;;;;2.70;1.90;;;;;;;30.74;32.78;99404.25;10265797;28;20141;-67
2021/07/25 14:27:06;;;;;;;2.30;2.10;;;;;;;30.10;33.44;99390.00;10263342;28;20057;-66
2021/07/25 14:32:08;;;;;;;2.63;2.23;;;;;;;29.60;33.82;99398.66;10269630;28;20462;-66
2021/07/25 14:37:09;;;;;;;2.60;2.33;;;;;;;29.50;34.60;99406.88;10264136;28;20155;-66
2021/07/25 14:42:10;;;;;;;2.50;1.87;;;;;;;29.34;34.97;99416.16;10264905;28;20050;-66
2021/07/25 14:47:12;;;;;;;2.60;2.30;;;;;;;29.14;34.26;99406.72;10265231;28;20569;-66
2021/07/25 14:52:13;;;;;;;2.50;2.30;;;;;;;28.79;35.24;99404.59;10263612;28;21154;-66
2021/07/25 14:57:15;;;;;;;3.00;2.45;;;;;;;28.95;35.56;99416.47;10264721;28;20047;-67
2021/07/25 15:02:19;;;;;;;2.65;2.35;;;;;;;28.97;35.39;99417.84;10283016;28;20065;-65
2021/07/25 15:07:21;;;;;;;2.60;2.20;;;;;;;28.94;34.63;99396.47;10304350;28;20045;-66
2021/07/25 15:12:23;;;;;;;2.38;2.17;;;;;;;28.90;34.57;99395.38;10284118;28;20054;-66
2021/07/25 15:17:26;;;;;;;5.15;3.03;;;;;;;28.85;34.79;99387.91;10322434;28;20034;-66
2021/07/25 15:22:28;;;;;;;4.65;2.50;;;;;;;28.68;35.30;99338.00;10324828;28;20046;-66
2021/07/25 15:27:30;;;;;;;3.38;2.38;;;;;;;28.94;35.37;99390.16;10337038;28;20165;-66
2021/07/25 15:32:34;;;;;;;3.58;2.40;;;;;;;28.70;34.95;99374.97;10325278;28;20146;-66
2021/07/25 15:37:35;;;;;;;;;;;;;;;28.72;34.89;99377.47;10318639;28;20054;-66
2021/07/25 15:42:37;;;;;;;4.03;2.78;;;;;;;28.68;35.60;99370.88;10318357;28;20005;-66
2021/07/25 15:47:38;;;;;;;4.90;2.23;;;;;;;28.73;35.73;99376.34;10318721;28;20136;-68
2021/07/25 15:52:40;;;;;;;2.63;2.00;;;;;;;28.68;35.30;99366.22;10295702;28;20065;-68
2021/07/25 15:57:41;;;;;;;2.42;2.22;;;;;;;28.80;35.78;99360.53;10299908;28;20276;-67
2021/07/25 16:02:43;;;;;;;2.57;1.97;;;;;;;28.89;34.99;99358.09;10290103;28;20058;-66
2021/07/25 16:07:45;;;;;;;2.88;2.05;;;;;;;28.83;35.13;99351.78;10292700;28;20057;-65
2021/07/25 16:12:47;;;;;;;3.42;2.22;;;;;;;28.70;35.15;99352.25;10292746;28;20815;-66
2021/07/25 16:17:49;;;;;;;4.18;2.53;;;;;;;28.51;35.57;99355.41;10290543;28;20043;-66
2021/07/25 16:22:50;;;;;;;2.85;2.55;;;;;;;28.17;36.29;99344.75;10286485;28;20096;-66
2021/07/25 16:27:52;;;;;;;2.70;1.97;;;;;;;28.05;36.41;99352.31;10284931;28;20062;-66
2021/07/25 16:32:53;;;;;;;2.85;2.35;;;;;;;27.94;36.94;99345.06;10290187;28;20466;-66
2021/07/25 16:37:55;;;;;;;2.75;2.22;;;;;;;27.83;36.83;99333.22;10286954;28;20062;-67
2021/07/25 16:42:56;;;;;;;2.63;2.17;;;;;;;27.83;36.88;99350.47;10256808;28;20641;-66
2021/07/25 16:47:57;;;;;;;3.25;2.55;;;;;;;27.60;36.80;99340.69;10252913;28;20061;-66
2021/07/25 16:52:59;;;;;;;3.30;3.00;;;;;;;27.60;36.88;99359.81;10263122;28;20498;-66
2021/07/25 16:58:01;;;;;;;3.57;2.57;;;;;;;27.45;37.83;99344.06;10263417;28;20745;-66
2021/07/25 17:03:02;;;;;;;2.85;2.55;;;;;;;27.49;37.90;99349.88;10266518;28;20057;-65
2021/07/25 17:08:04;;;;;;;3.70;2.30;;;;;;;27.44;37.67;99358.84;10273512;28;20121;-67
2021/07/25 17:13:07;;;;;;;3.40;3.10;;;;;;;27.32;37.96;99344.44;10275137;28;20098;-66
2021/07/25 17:18:09;;;;;;;3.80;2.90;;;;;;;27.37;38.30;99360.94;10303756;28;20282;-66
2021/07/25 17:23:11;;;;;;;2.88;2.50;;;;;;;27.24;38.40;99358.56;10281540;28;20054;-66
2021/07/25 17:28:12;;;;;;;4.68;2.30;;;;;;;27.04;39.29;99387.28;10262884;28;20084;-66
2021/07/25 17:33:13;;;;;;;3.50;1.92;;;;;;;26.74;41.58;99404.06;10263129;28;20536;-67
2021/07/25 17:38:15;;;;;;;2.97;1.88;;;;;;;26.52;42.55;99406.72;10259591;28;20145;-66
2021/07/25 17:43:19;;;;;;;2.53;2.30;;;;;;;26.28;43.23;99401.41;10261130;28;20073;-67
2021/07/25 17:48:20;;;;;;;4.32;2.35;;;;;;;26.22;44.26;99391.50;10260399;28;20054;-66
2021/07/25 17:53:25;;;;;;;4.78;2.25;;;;;;;26.18;44.69;99409.44;10260486;28;20133;-65
2021/07/25 17:58:26;;;;;;;4.70;2.53;;;;;;;26.19;44.84;99413.81;10264273;28;20109;-67
2021/07/25 18:03:28;;;;;;;3.05;2.30;;;;;;;26.10;45.54;99397.03;10263954;28;20060;-67
2021/07/25 18:08:29;;;;;;;2.83;1.83;;;;;;;26.03;46.40;99407.25;10268613;28;20078;-66
2021/07/25 18:13:31;;;;;;;3.65;2.65;;;;;;;25.87;47.16;99417.06;10267486;28;22612;-67
2021/07/25 18:18:33;;;;;;;2.78;2.05;;;;;;;25.76;47.36;99410.56;10270062;28;20389;-65
2021/07/25 18:23:34;;;;;;;2.63;2.30;;;;;;;25.52;48.76;99412.56;10263156;28;20414;-65
2021/07/25 18:28:36;;;;;;;3.10;2.10;;;;;;;25.35;48.84;99418.78;10258103;28;20912;-65
2021/07/25 18:33:39;;;;;;;3.90;2.55;;;;;;;25.21;49.75;99420.09;10261274;28;20078;-69
2021/07/25 18:38:40;;;;;;;;;;;;;;;25.43;49.94;99428.47;10264592;28;20599;-66
2021/07/25 18:43:41;;;;;;;2.22;1.98;;;;;;;25.33;49.21;99417.38;10266740;28;19972;-67
2021/07/25 18:48:43;;;;;;;4.57;2.80;;;;;;;25.25;49.99;99423.97;10260629;28;20157;-65
2021/07/25 18:53:51;;;;;;;3.92;2.30;;;;;;;25.12;50.54;99413.38;10262651;28;20051;-66
2021/07/25 18:59:11;;;;;;;3.35;2.28;;;;;;;25.13;49.97;99432.19;10261807;28;20536;-67
2021/07/25 19:04:13;;;;;;;4.50;2.80;;;;;;;25.05;50.97;99433.34;10270347;28;20133;-67
2021/07/25 19:09:14;;;;;;;3.25;2.60;;;;;;;24.94;51.09;99442.38;10270460;28;20162;-69
2021/07/25 19:14:16;;;;;;;6.32;3.78;;;;;;;24.91;51.35;99436.59;10267306;28;20129;-68
2021/07/25 19:19:18;;;;;;;3.90;2.92;;;;;;;24.79;51.42;99455.66;10267994;28;20137;-66
2021/07/25 19:24:20;;;;;;;3.07;2.73;;;;;;;24.68;52.24;99460.84;10271876;28;20066;-68
2021/07/25 19:29:21;;;;;;;2.88;2.58;;;;;;;24.69;52.58;99475.28;10269747;28;20149;-69
2021/07/25 19:34:23;;;;;;;4.70;2.25;;;;;;;24.67;51.79;99491.00;10267935;28;20078;-66
2021/07/25 19:39:24;;;;;;;3.83;2.15;;;;;;;24.57;51.87;99494.25;10258315;28;20112;-67
2021/07/25 19:44:27;;;;;;;3.70;2.17;;;;;;;24.40;51.58;99496.03;10258802;28;20062;-67
2021/07/25 19:49:30;;;;;;;4.22;2.25;;;;;;;24.28;51.37;99504.97;10256406;28;20061;-66
2021/07/25 19:54:32;;;;;;;3.00;2.27;;;;;;;24.24;51.74;99514.63;10263639;28;20074;-68
2021/07/25 19:59:33;;;;;;;4.18;2.42;;;;;;;24.18;51.62;99521.00;10263313;28;20462;-67
2021/07/25 20:04:35;;;;;;;3.05;2.00;;;;;;;24.08;51.74;99526.16;10260482;28;20085;-68
2021/07/25 20:09:48;;;;;;;3.83;2.83;;;;;;;24.11;51.99;99552.88;10273031;28;20098;-66
2021/07/25 20:14:50;;;;;;;3.80;2.20;;;;;;;24.14;51.98;99549.69;10259290;28;20065;-68
2021/07/25 20:19:52;;;;;;;3.85;2.35;;;;;;;24.16;52.01;99544.88;10261920;28;20363;-67
2021/07/25 20:24:54;;;;;;;3.67;2.03;;;;;;;24.19;51.24;99577.03;10256902;28;20138;-67
2021/07/25 20:29:57;;;;;;;3.05;1.92;;;;;;;24.14;51.57;99574.16;10256190;28;20129;-66
2021/07/25 20:34:59;;;;;;;;;;;;;;;24.11;51.69;99586.34;10256279;28;20138;-67
2021/07/25 20:40:01;;;;;;;3.47;2.20;;;;;;;24.03;52.48;99583.94;10257944;28;19928;-67
2021/07/25 20:45:03;;;;;;;3.60;3.30;;;;;;;23.98;54.48;99581.91;10239011;28;20050;-66
2021/07/25 20:50:05;;;;;;;4.72;4.10;;;;;;;23.99;57.85;99589.00;10244936;28;20145;-66
2021/07/25 20:55:07;;;;;;;6.78;4.60;;;;;;;23.94;59.86;99599.72;10254436;28;20206;-66
2021/07/25 21:00:09;;;;;;;5.72;4.15;;;;;;;23.85;60.53;99597.50;10264862;28;20047;-65
2021/07/25 21:05:11;;;;;;;5.55;3.28;;;;;;;23.76;61.50;99605.13;10261260;28;20190;-66
2021/07/25 21:10:20;;;;;;;8.00;4.10;;;;;;;23.62;62.17;99599.84;10266057;28;20516;-65
2021/07/25 21:15:39;;;;;;;3.83;3.40;;;;;;;23.51;62.33;99603.31;10266962;28;20051;-66
2021/07/25 21:20:42;;;;;;;6.55;3.80;;;;;;;23.55;63.29;99620.78;10266568;28;20486;-65
2021/07/25 21:25:43;;;;;;;6.40;3.10;;;;;;;23.48;63.85;99611.91;10260477;28;20462;-65
2021/07/25 21:30:45;;;;;;;7.25;4.03;;;;;;;23.40;63.81;99613.00;10288023;28;20074;-65
2021/07/25 21:35:46;;;;;;;12.25;4.47;;;;;;;23.35;64.61;99620.19;10286956;28;20058;-65
2021/07/25 21:40:48;;;;;;;5.82;3.80;;;;;;;23.22;64.97;99611.06;10275179;28;20145;-65
2021/07/25 21:45:50;;;;;;;6.15;4.38;;;;;;;23.13;65.30;99628.69;10271064;28;20526;-66
2021/07/25 21:50:51;;;;;;;5.67;4.37;;;;;;;23.01;65.55;99611.44;10272156;28;20110;-66
2021/07/25 21:55:53;;;;;;;4.80;3.88;;;;;;;23.03;65.91;99622.91;10281596;28;20059;-66
2021/07/25 22:01:01;;;;;;;5.45;4.13;;;;;;;22.93;66.27;99618.78;10263204;28;20530;-66
2021/07/25 22:06:12;;;;;;;5.50;4.25;;;;;;;22.87;66.86;99625.09;10264838;28;20548;-64
2021/07/25 22:11:15;;;;;;;5.85;3.80;;;;;;;22.82;67.11;99618.66;10269397;28;20104;-66
2021/07/25 22:16:16;;;;;;;7.03;4.30;;;;;;;22.75;67.20;99629.56;10272073;28;20129;-65
2021/07/25 22:21:18;;;;;;;5.07;4.18;;;;;;;;;;10265323;28;20055;-66
2021/07/25 22:26:19;;;;;;;4.25;3.70;;;;;;;22.68;67.67;99626.88;10268070;28;20125;-67
2021/07/25 22:31:20;;;;;;;5.60;3.92;;;;;;;22.58;67.85;99626.56;10274333;28;20118;-66
2021/07/25 22:36:22;;;;;;;4.68;4.13;;;;;;;22.53;68.03;99610.94;10273303;28;20583;-69
2021/07/25 22:41:23;;;;;;;5.35;4.43;;;;;;;22.55;67.87;99602.59;10274644;28;20133;-66
2021/07/25 22:46:25;;;;;;;6.28;4.45;;;;;;;22.46;68.27;99593.03;10275644;28;20134;-65
2021/07/25 22:51:26;;;;;;;4.53;4.13;;;;;;;22.39;68.66;99580.34;10270634;28;20055;-65
2021/07/25 22:56:28;;;;;;;5.35;4.82;;;;;;;22.37;68.81;99587.88;10272201;28;20453;-65
2021/07/25 23:01:30;;;;;;;5.72;4.03;;;;;;;22.34;68.97;99592.88;10267153;28;20850;-66
2021/07/25 23:06:32;;;;;;;5.90;4.37;;;;;;;22.35;69.04;99584.56;10267721;28;20051;-65
2021/07/25 23:11:33;;;;;;;5.93;4.65;;;;;;;22.23;68.72;99576.25;10270362;28;20105;-66
2021/07/25 23:16:35;;;;;;;6.25;4.70;;;;;;;22.25;68.93;99581.44;10278122;28;20502;-66
2021/07/25 23:21:37;;;;;;;6.07;4.40;;;;;;;22.21;69.03;99589.16;10267947;28;20057;-65
2021/07/25 23:26:39;;;;;;;5.88;4.15;;;;;;;22.10;69.53;99592.56;10266322;28;20075;-66
2021/07/25 23:31:41;;;;;;;8.32;5.15;;;;;;;21.97;70.06;99592.63;10274934;28;20097;-65
2021/07/25 23:36:43;;;;;;;5.80;4.70;;;;;;;21.89;70.21;99591.81;10288955;28;20055;-65